sensor_id;sensor_type;location;lat;lon;timestamp;P1;durP1;ratioP1;P2;durP2;ratioP2
22715;SDS011;11525;51.152;4.456;2022-11-14T00:02:25;29.27;;;24.20;;
22715;SDS011;11525;51.152;4.456;2022-11-14T00:04:51;30.17;;;23.30;;
22715;SDS011;11525;51.152;4.456;2022-11-14T00:07:17;30.45;;;23.58;;
22715;SDS011;11525;51.152;4.456;2022-11-14T00:09:43;29.05;;;22.60;;
22715;SDS011;11525;51.152;4.456;2022-11-14T00:12:09;30.85;;;23.55;;
22715;SDS011;11525;51.152;4.456;2022-11-14T00:14:35;28.73;;;22.17;;
22715;SDS011;11525;51.152;4.456;2022-11-14T00:17:01;27.42;;;23.00;;
22715;SDS011;11525;51.152;4.456;2022-11-14T00:19:27;27.48;;;22.73;;
22715;SDS011;11525;51.152;4.456;2022-11-14T00:21:53;28.55;;;22.17;;
22715;SDS011;11525;51.152;4.456;2022-11-14T00:24:19;27.73;;;22.60;;
22715;SDS011;11525;51.152;4.456;2022-11-14T00:26:45;29.25;;;23.30;;
22715;SDS011;11525;51.152;4.456;2022-11-14T00:29:11;30.52;;;23.35;;
22715;SDS011;11525;51.152;4.456;2022-11-14T00:31:41;29.02;;;23.60;;
22715;SDS011;11525;51.152;4.456;2022-11-14T00:34:07;28.42;;;22.50;;
22715;SDS011;11525;51.152;4.456;2022-11-14T00:36:33;31.20;;;22.05;;
22715;SDS011;11525;51.152;4.456;2022-11-14T00:39:00;28.73;;;22.98;;
22715;SDS011;11525;51.152;4.456;2022-11-14T00:41:26;30.35;;;23.75;;
22715;SDS011;11525;51.152;4.456;2022-11-14T00:43:52;33.95;;;27.40;;
22715;SDS011;11525;51.152;4.456;2022-11-14T00:46:17;37.97;;;28.77;;
22715;SDS011;11525;51.152;4.456;2022-11-14T00:48:43;31.35;;;24.33;;
22715;SDS011;11525;51.152;4.456;2022-11-14T00:51:09;32.50;;;23.42;;
22715;SDS011;11525;51.152;4.456;2022-11-14T00:53:35;32.63;;;24.67;;
22715;SDS011;11525;51.152;4.456;2022-11-14T00:56:01;28.40;;;24.20;;
22715;SDS011;11525;51.152;4.456;2022-11-14T00:58:27;30.00;;;23.50;;
22715;SDS011;11525;51.152;4.456;2022-11-14T01:00:53;30.88;;;24.40;;
22715;SDS011;11525;51.152;4.456;2022-11-14T01:03:19;32.90;;;23.50;;
22715;SDS011;11525;51.152;4.456;2022-11-14T01:05:46;33.58;;;26.50;;
22715;SDS011;11525;51.152;4.456;2022-11-14T01:08:14;32.47;;;24.67;;
22715;SDS011;11525;51.152;4.456;2022-11-14T01:10:41;30.75;;;23.92;;
22715;SDS011;11525;51.152;4.456;2022-11-14T01:13:11;29.60;;;24.08;;
22715;SDS011;11525;51.152;4.456;2022-11-14T01:15:44;27.27;;;23.27;;
22715;SDS011;11525;51.152;4.456;2022-11-14T01:18:12;31.40;;;25.30;;
22715;SDS011;11525;51.152;4.456;2022-11-14T01:20:40;30.25;;;25.33;;
22715;SDS011;11525;51.152;4.456;2022-11-14T01:23:08;30.17;;;24.58;;
22715;SDS011;11525;51.152;4.456;2022-11-14T01:25:35;34.55;;;26.23;;
22715;SDS011;11525;51.152;4.456;2022-11-14T01:28:06;31.95;;;26.02;;
22715;SDS011;11525;51.152;4.456;2022-11-14T01:30:37;33.30;;;26.35;;
22715;SDS011;11525;51.152;4.456;2022-11-14T01:33:03;34.15;;;25.42;;
22715;SDS011;11525;51.152;4.456;2022-11-14T01:35:30;30.20;;;24.33;;
22715;SDS011;11525;51.152;4.456;2022-11-14T01:37:57;32.45;;;26.05;;
22715;SDS011;11525;51.152;4.456;2022-11-14T01:40:22;34.20;;;26.13;;
22715;SDS011;11525;51.152;4.456;2022-11-14T01:45:46;28.95;;;24.17;;
22715;SDS011;11525;51.152;4.456;2022-11-14T01:48:42;30.17;;;24.10;;
22715;SDS011;11525;51.152;4.456;2022-11-14T01:51:30;31.98;;;24.77;;
22715;SDS011;11525;51.152;4.456;2022-11-14T01:54:03;29.95;;;23.80;;
22715;SDS011;11525;51.152;4.456;2022-11-14T01:56:45;36.95;;;25.75;;
22715;SDS011;11525;51.152;4.456;2022-11-14T01:59:20;28.63;;;24.67;;
22715;SDS011;11525;51.152;4.456;2022-11-14T02:01:49;34.35;;;26.30;;
22715;SDS011;11525;51.152;4.456;2022-11-14T02:04:20;31.20;;;25.75;;
22715;SDS011;11525;51.152;4.456;2022-11-14T02:06:56;37.88;;;27.27;;
22715;SDS011;11525;51.152;4.456;2022-11-14T02:09:25;33.42;;;26.67;;
22715;SDS011;11525;51.152;4.456;2022-11-14T02:11:54;31.20;;;26.23;;
22715;SDS011;11525;51.152;4.456;2022-11-14T02:14:25;35.33;;;26.33;;
22715;SDS011;11525;51.152;4.456;2022-11-14T02:16:52;32.17;;;25.05;;
22715;SDS011;11525;51.152;4.456;2022-11-14T02:19:18;33.58;;;26.60;;
22715;SDS011;11525;51.152;4.456;2022-11-14T02:21:44;33.15;;;28.13;;
22715;SDS011;11525;51.152;4.456;2022-11-14T02:24:10;30.23;;;25.65;;
22715;SDS011;11525;51.152;4.456;2022-11-14T02:26:37;32.70;;;26.95;;
22715;SDS011;11525;51.152;4.456;2022-11-14T02:29:04;31.50;;;25.85;;
22715;SDS011;11525;51.152;4.456;2022-11-14T02:31:31;33.25;;;27.30;;
22715;SDS011;11525;51.152;4.456;2022-11-14T02:33:57;37.42;;;28.42;;
22715;SDS011;11525;51.152;4.456;2022-11-14T02:36:23;35.03;;;28.00;;
22715;SDS011;11525;51.152;4.456;2022-11-14T02:38:49;32.63;;;27.55;;
22715;SDS011;11525;51.152;4.456;2022-11-14T02:41:15;35.85;;;28.02;;
22715;SDS011;11525;51.152;4.456;2022-11-14T02:43:41;32.65;;;27.52;;
22715;SDS011;11525;51.152;4.456;2022-11-14T02:46:06;33.53;;;27.50;;
22715;SDS011;11525;51.152;4.456;2022-11-14T02:48:32;32.35;;;27.73;;
22715;SDS011;11525;51.152;4.456;2022-11-14T02:50:58;36.22;;;28.08;;
22715;SDS011;11525;51.152;4.456;2022-11-14T02:53:24;35.58;;;27.73;;
22715;SDS011;11525;51.152;4.456;2022-11-14T02:55:49;32.80;;;26.90;;
22715;SDS011;11525;51.152;4.456;2022-11-14T02:58:15;35.35;;;28.27;;
22715;SDS011;11525;51.152;4.456;2022-11-14T03:00:41;33.03;;;26.60;;
22715;SDS011;11525;51.152;4.456;2022-11-14T03:03:07;33.70;;;27.95;;
22715;SDS011;11525;51.152;4.456;2022-11-14T03:05:33;36.47;;;27.83;;
22715;SDS011;11525;51.152;4.456;2022-11-14T03:07:58;39.05;;;27.38;;
22715;SDS011;11525;51.152;4.456;2022-11-14T03:10:24;34.42;;;27.60;;
22715;SDS011;11525;51.152;4.456;2022-11-14T03:12:53;35.28;;;28.30;;
22715;SDS011;11525;51.152;4.456;2022-11-14T03:15:20;38.10;;;27.98;;
22715;SDS011;11525;51.152;4.456;2022-11-14T03:17:46;35.42;;;27.65;;
22715;SDS011;11525;51.152;4.456;2022-11-14T03:20:11;31.30;;;26.52;;
22715;SDS011;11525;51.152;4.456;2022-11-14T03:22:37;40.17;;;27.60;;
22715;SDS011;11525;51.152;4.456;2022-11-14T03:25:03;36.17;;;28.08;;
22715;SDS011;11525;51.152;4.456;2022-11-14T03:27:29;40.72;;;29.65;;
22715;SDS011;11525;51.152;4.456;2022-11-14T03:29:55;35.72;;;28.60;;
22715;SDS011;11525;51.152;4.456;2022-11-14T03:32:21;41.63;;;29.67;;
22715;SDS011;11525;51.152;4.456;2022-11-14T03:34:47;30.98;;;27.38;;
22715;SDS011;11525;51.152;4.456;2022-11-14T03:37:12;35.47;;;27.58;;
22715;SDS011;11525;51.152;4.456;2022-11-14T03:39:38;36.47;;;29.42;;
22715;SDS011;11525;51.152;4.456;2022-11-14T03:42:04;37.17;;;28.58;;
22715;SDS011;11525;51.152;4.456;2022-11-14T03:44:30;37.13;;;29.10;;
22715;SDS011;11525;51.152;4.456;2022-11-14T03:46:56;35.60;;;29.73;;
22715;SDS011;11525;51.152;4.456;2022-11-14T03:49:21;37.40;;;28.77;;
22715;SDS011;11525;51.152;4.456;2022-11-14T03:51:47;37.25;;;29.38;;
22715;SDS011;11525;51.152;4.456;2022-11-14T03:54:13;37.80;;;29.13;;
22715;SDS011;11525;51.152;4.456;2022-11-14T03:56:39;37.75;;;29.98;;
22715;SDS011;11525;51.152;4.456;2022-11-14T03:59:05;35.95;;;29.45;;
22715;SDS011;11525;51.152;4.456;2022-11-14T04:01:30;39.38;;;29.55;;
22715;SDS011;11525;51.152;4.456;2022-11-14T04:03:56;36.40;;;28.17;;
22715;SDS011;11525;51.152;4.456;2022-11-14T04:06:22;36.97;;;29.92;;
22715;SDS011;11525;51.152;4.456;2022-11-14T04:08:47;37.58;;;29.10;;
22715;SDS011;11525;51.152;4.456;2022-11-14T04:11:13;37.50;;;29.77;;
22715;SDS011;11525;51.152;4.456;2022-11-14T04:13:39;37.28;;;28.75;;
22715;SDS011;11525;51.152;4.456;2022-11-14T04:16:05;36.92;;;29.45;;
22715;SDS011;11525;51.152;4.456;2022-11-14T04:18:32;36.20;;;27.42;;
22715;SDS011;11525;51.152;4.456;2022-11-14T04:20:58;35.00;;;27.92;;
22715;SDS011;11525;51.152;4.456;2022-11-14T04:23:23;31.48;;;26.70;;
22715;SDS011;11525;51.152;4.456;2022-11-14T04:25:49;37.33;;;27.70;;
22715;SDS011;11525;51.152;4.456;2022-11-14T04:28:15;33.72;;;27.55;;
22715;SDS011;11525;51.152;4.456;2022-11-14T04:30:41;34.05;;;28.58;;
22715;SDS011;11525;51.152;4.456;2022-11-14T04:33:09;35.35;;;27.48;;
22715;SDS011;11525;51.152;4.456;2022-11-14T04:35:35;36.33;;;28.15;;
22715;SDS011;11525;51.152;4.456;2022-11-14T04:38:01;31.73;;;25.35;;
22715;SDS011;11525;51.152;4.456;2022-11-14T04:40:27;33.67;;;28.02;;
22715;SDS011;11525;51.152;4.456;2022-11-14T04:42:53;34.20;;;26.27;;
22715;SDS011;11525;51.152;4.456;2022-11-14T04:45:18;35.97;;;26.58;;
22715;SDS011;11525;51.152;4.456;2022-11-14T04:47:44;34.05;;;28.42;;
22715;SDS011;11525;51.152;4.456;2022-11-14T04:50:10;33.70;;;26.25;;
22715;SDS011;11525;51.152;4.456;2022-11-14T04:52:36;35.70;;;27.90;;
22715;SDS011;11525;51.152;4.456;2022-11-14T04:55:01;31.65;;;25.52;;
22715;SDS011;11525;51.152;4.456;2022-11-14T04:57:27;32.08;;;27.02;;
22715;SDS011;11525;51.152;4.456;2022-11-14T04:59:53;40.22;;;27.48;;
22715;SDS011;11525;51.152;4.456;2022-11-14T05:02:19;30.80;;;26.02;;
22715;SDS011;11525;51.152;4.456;2022-11-14T05:04:45;32.13;;;26.02;;
22715;SDS011;11525;51.152;4.456;2022-11-14T05:07:12;33.15;;;26.65;;
22715;SDS011;11525;51.152;4.456;2022-11-14T05:09:38;36.95;;;27.55;;
22715;SDS011;11525;51.152;4.456;2022-11-14T05:12:04;35.60;;;28.30;;
22715;SDS011;11525;51.152;4.456;2022-11-14T05:14:30;34.83;;;27.65;;
22715;SDS011;11525;51.152;4.456;2022-11-14T05:16:57;31.80;;;27.23;;
22715;SDS011;11525;51.152;4.456;2022-11-14T05:19:23;32.58;;;26.63;;
22715;SDS011;11525;51.152;4.456;2022-11-14T05:25:02;31.92;;;26.83;;
22715;SDS011;11525;51.152;4.456;2022-11-14T05:28:28;38.72;;;29.05;;
22715;SDS011;11525;51.152;4.456;2022-11-14T05:34:39;36.97;;;27.52;;
22715;SDS011;11525;51.152;4.456;2022-11-14T05:37:05;35.97;;;29.98;;
22715;SDS011;11525;51.152;4.456;2022-11-14T05:40:08;38.20;;;29.77;;
22715;SDS011;11525;51.152;4.456;2022-11-14T05:42:35;33.28;;;27.35;;
22715;SDS011;11525;51.152;4.456;2022-11-14T05:45:03;35.28;;;28.80;;
22715;SDS011;11525;51.152;4.456;2022-11-14T05:47:29;34.30;;;27.45;;
22715;SDS011;11525;51.152;4.456;2022-11-14T05:49:55;35.08;;;27.65;;
22715;SDS011;11525;51.152;4.456;2022-11-14T05:52:21;43.08;;;27.73;;
22715;SDS011;11525;51.152;4.456;2022-11-14T05:54:47;37.30;;;28.98;;
22715;SDS011;11525;51.152;4.456;2022-11-14T05:57:12;37.20;;;28.67;;
22715;SDS011;11525;51.152;4.456;2022-11-14T05:59:38;35.03;;;27.85;;
22715;SDS011;11525;51.152;4.456;2022-11-14T06:02:04;35.90;;;28.63;;
22715;SDS011;11525;51.152;4.456;2022-11-14T06:04:30;33.72;;;26.95;;
22715;SDS011;11525;51.152;4.456;2022-11-14T06:06:55;34.92;;;26.52;;
22715;SDS011;11525;51.152;4.456;2022-11-14T06:09:21;36.63;;;29.38;;
22715;SDS011;11525;51.152;4.456;2022-11-14T06:11:50;34.08;;;28.13;;
22715;SDS011;11525;51.152;4.456;2022-11-14T06:14:19;37.97;;;28.00;;
22715;SDS011;11525;51.152;4.456;2022-11-14T06:16:44;36.50;;;28.85;;
22715;SDS011;11525;51.152;4.456;2022-11-14T06:19:10;35.33;;;27.35;;
22715;SDS011;11525;51.152;4.456;2022-11-14T06:21:36;33.38;;;27.08;;
22715;SDS011;11525;51.152;4.456;2022-11-14T06:24:02;33.28;;;26.95;;
22715;SDS011;11525;51.152;4.456;2022-11-14T06:26:29;37.55;;;27.42;;
22715;SDS011;11525;51.152;4.456;2022-11-14T06:28:56;36.10;;;28.08;;
22715;SDS011;11525;51.152;4.456;2022-11-14T06:31:23;33.53;;;26.50;;
22715;SDS011;11525;51.152;4.456;2022-11-14T06:33:49;36.78;;;28.42;;
22715;SDS011;11525;51.152;4.456;2022-11-14T06:36:16;36.35;;;26.85;;
22715;SDS011;11525;51.152;4.456;2022-11-14T06:38:42;34.13;;;26.23;;
22715;SDS011;11525;51.152;4.456;2022-11-14T06:41:10;34.92;;;28.33;;
22715;SDS011;11525;51.152;4.456;2022-11-14T06:43:43;34.92;;;29.23;;
22715;SDS011;11525;51.152;4.456;2022-11-14T06:46:12;33.95;;;27.58;;
22715;SDS011;11525;51.152;4.456;2022-11-14T06:49:07;38.58;;;30.13;;
22715;SDS011;11525;51.152;4.456;2022-11-14T06:51:33;37.10;;;29.65;;
22715;SDS011;11525;51.152;4.456;2022-11-14T06:53:59;33.30;;;27.73;;
22715;SDS011;11525;51.152;4.456;2022-11-14T06:56:24;40.42;;;29.52;;
22715;SDS011;11525;51.152;4.456;2022-11-14T06:58:50;36.35;;;29.92;;
22715;SDS011;11525;51.152;4.456;2022-11-14T07:01:20;37.78;;;27.75;;
22715;SDS011;11525;51.152;4.456;2022-11-14T07:03:47;36.40;;;27.88;;
22715;SDS011;11525;51.152;4.456;2022-11-14T07:06:14;35.03;;;27.05;;
22715;SDS011;11525;51.152;4.456;2022-11-14T07:08:41;36.85;;;29.45;;
22715;SDS011;11525;51.152;4.456;2022-11-14T07:11:12;34.67;;;28.02;;
22715;SDS011;11525;51.152;4.456;2022-11-14T07:13:47;36.10;;;27.27;;
22715;SDS011;11525;51.152;4.456;2022-11-14T07:16:16;35.92;;;28.95;;
22715;SDS011;11525;51.152;4.456;2022-11-14T07:18:42;34.72;;;27.83;;
22715;SDS011;11525;51.152;4.456;2022-11-14T07:21:08;33.75;;;26.50;;
22715;SDS011;11525;51.152;4.456;2022-11-14T07:23:37;39.65;;;30.05;;
22715;SDS011;11525;51.152;4.456;2022-11-14T07:26:04;37.00;;;28.70;;
22715;SDS011;11525;51.152;4.456;2022-11-14T07:28:31;38.95;;;29.13;;
22715;SDS011;11525;51.152;4.456;2022-11-14T07:30:58;39.53;;;29.58;;
22715;SDS011;11525;51.152;4.456;2022-11-14T07:33:23;41.13;;;30.65;;
22715;SDS011;11525;51.152;4.456;2022-11-14T07:35:50;39.50;;;29.08;;
22715;SDS011;11525;51.152;4.456;2022-11-14T07:38:15;39.00;;;30.15;;
22715;SDS011;11525;51.152;4.456;2022-11-14T07:40:41;40.90;;;28.70;;
22715;SDS011;11525;51.152;4.456;2022-11-14T07:43:07;37.67;;;28.77;;
22715;SDS011;11525;51.152;4.456;2022-11-14T07:45:32;34.25;;;26.98;;
22715;SDS011;11525;51.152;4.456;2022-11-14T07:47:59;36.53;;;28.17;;
22715;SDS011;11525;51.152;4.456;2022-11-14T07:50:26;38.05;;;28.23;;
22715;SDS011;11525;51.152;4.456;2022-11-14T07:52:53;36.40;;;27.52;;
22715;SDS011;11525;51.152;4.456;2022-11-14T07:55:21;39.70;;;27.17;;
22715;SDS011;11525;51.152;4.456;2022-11-14T07:57:50;41.42;;;28.00;;
22715;SDS011;11525;51.152;4.456;2022-11-14T08:00:17;41.42;;;28.25;;
22715;SDS011;11525;51.152;4.456;2022-11-14T08:02:44;37.55;;;26.52;;
22715;SDS011;11525;51.152;4.456;2022-11-14T08:05:10;38.10;;;26.20;;
22715;SDS011;11525;51.152;4.456;2022-11-14T08:07:36;34.22;;;26.20;;
22715;SDS011;11525;51.152;4.456;2022-11-14T08:10:02;33.95;;;25.23;;
22715;SDS011;11525;51.152;4.456;2022-11-14T08:12:28;29.17;;;22.85;;
22715;SDS011;11525;51.152;4.456;2022-11-14T08:14:53;28.00;;;21.27;;
22715;SDS011;11525;51.152;4.456;2022-11-14T08:17:20;26.02;;;21.30;;
22715;SDS011;11525;51.152;4.456;2022-11-14T08:19:46;28.00;;;21.40;;
22715;SDS011;11525;51.152;4.456;2022-11-14T08:22:12;24.33;;;20.30;;
22715;SDS011;11525;51.152;4.456;2022-11-14T08:24:37;28.23;;;20.05;;
22715;SDS011;11525;51.152;4.456;2022-11-14T08:27:03;24.67;;;18.27;;
22715;SDS011;11525;51.152;4.456;2022-11-14T08:29:28;22.13;;;18.40;;
22715;SDS011;11525;51.152;4.456;2022-11-14T08:31:54;23.50;;;18.08;;
22715;SDS011;11525;51.152;4.456;2022-11-14T08:34:20;25.10;;;17.58;;
22715;SDS011;11525;51.152;4.456;2022-11-14T08:36:47;26.58;;;18.42;;
22715;SDS011;11525;51.152;4.456;2022-11-14T08:39:13;22.77;;;16.50;;
22715;SDS011;11525;51.152;4.456;2022-11-14T08:41:39;23.77;;;16.50;;
22715;SDS011;11525;51.152;4.456;2022-11-14T08:44:05;21.40;;;16.30;;
22715;SDS011;11525;51.152;4.456;2022-11-14T08:46:30;20.88;;;15.23;;
22715;SDS011;11525;51.152;4.456;2022-11-14T08:48:56;19.75;;;15.20;;
22715;SDS011;11525;51.152;4.456;2022-11-14T08:51:22;21.52;;;14.10;;
22715;SDS011;11525;51.152;4.456;2022-11-14T08:53:48;18.67;;;14.02;;
22715;SDS011;11525;51.152;4.456;2022-11-14T08:56:16;18.27;;;14.20;;
22715;SDS011;11525;51.152;4.456;2022-11-14T08:58:42;16.17;;;13.15;;
22715;SDS011;11525;51.152;4.456;2022-11-14T09:01:08;17.50;;;13.75;;
22715;SDS011;11525;51.152;4.456;2022-11-14T09:03:34;21.48;;;14.93;;
22715;SDS011;11525;51.152;4.456;2022-11-14T09:19:26;21.80;;;13.68;;
22715;SDS011;11525;51.152;4.456;2022-11-14T09:21:54;25.70;;;14.00;;
22715;SDS011;11525;51.152;4.456;2022-11-14T09:24:26;17.95;;;12.88;;
22715;SDS011;11525;51.152;4.456;2022-11-14T09:27:36;19.05;;;12.93;;
22715;SDS011;11525;51.152;4.456;2022-11-14T09:30:40;19.08;;;13.55;;
22715;SDS011;11525;51.152;4.456;2022-11-14T09:33:09;15.40;;;13.23;;
22715;SDS011;11525;51.152;4.456;2022-11-14T09:49:00;16.42;;;13.10;;
22715;SDS011;11525;51.152;4.456;2022-11-14T09:51:29;17.58;;;13.30;;
22715;SDS011;11525;51.152;4.456;2022-11-14T09:54:05;20.30;;;13.10;;
22715;SDS011;11525;51.152;4.456;2022-11-14T09:56:48;16.05;;;11.88;;
22715;SDS011;11525;51.152;4.456;2022-11-14T09:59:14;17.88;;;12.38;;
22715;SDS011;11525;51.152;4.456;2022-11-14T10:04:24;15.70;;;12.45;;
22715;SDS011;11525;51.152;4.456;2022-11-14T10:09:56;17.77;;;12.38;;
22715;SDS011;11525;51.152;4.456;2022-11-14T10:12:42;17.77;;;11.52;;
22715;SDS011;11525;51.152;4.456;2022-11-14T10:20:19;20.70;;;13.38;;
22715;SDS011;11525;51.152;4.456;2022-11-14T10:32:04;16.88;;;13.23;;
22715;SDS011;11525;51.152;4.456;2022-11-14T10:34:41;22.45;;;13.40;;
22715;SDS011;11525;51.152;4.456;2022-11-14T10:39:49;20.33;;;14.45;;
22715;SDS011;11525;51.152;4.456;2022-11-14T10:42:53;22.02;;;13.80;;
22715;SDS011;11525;51.152;4.456;2022-11-14T10:47:53;20.45;;;14.20;;
22715;SDS011;11525;51.152;4.456;2022-11-14T10:50:28;28.25;;;14.98;;
22715;SDS011;11525;51.152;4.456;2022-11-14T10:52:59;24.23;;;14.43;;
22715;SDS011;11525;51.152;4.456;2022-11-14T10:55:27;27.73;;;15.77;;
22715;SDS011;11525;51.152;4.456;2022-11-14T10:57:53;24.05;;;16.85;;
22715;SDS011;11525;51.152;4.456;2022-11-14T11:00:19;22.88;;;17.15;;
22715;SDS011;11525;51.152;4.456;2022-11-14T11:02:53;28.85;;;19.17;;
22715;SDS011;11525;51.152;4.456;2022-11-14T11:05:21;29.05;;;18.95;;
22715;SDS011;11525;51.152;4.456;2022-11-14T11:07:48;26.92;;;19.48;;
22715;SDS011;11525;51.152;4.456;2022-11-14T11:10:33;25.40;;;18.35;;
22715;SDS011;11525;51.152;4.456;2022-11-14T11:13:32;26.88;;;18.13;;
22715;SDS011;11525;51.152;4.456;2022-11-14T11:16:08;28.45;;;20.25;;
22715;SDS011;11525;51.152;4.456;2022-11-14T11:18:35;29.02;;;20.00;;
22715;SDS011;11525;51.152;4.456;2022-11-14T11:23:30;26.70;;;19.25;;
22715;SDS011;11525;51.152;4.456;2022-11-14T11:26:04;28.60;;;19.42;;
22715;SDS011;11525;51.152;4.456;2022-11-14T11:28:44;27.80;;;18.88;;
22715;SDS011;11525;51.152;4.456;2022-11-14T11:34:31;23.45;;;15.80;;
22715;SDS011;11525;51.152;4.456;2022-11-14T11:39:31;21.52;;;14.63;;
22715;SDS011;11525;51.152;4.456;2022-11-14T11:42:01;21.27;;;15.32;;
22715;SDS011;11525;51.152;4.456;2022-11-14T11:44:33;20.48;;;14.60;;
22715;SDS011;11525;51.152;4.456;2022-11-14T11:47:07;27.90;;;14.80;;
22715;SDS011;11525;51.152;4.456;2022-11-14T11:49:50;17.20;;;14.00;;
22715;SDS011;11525;51.152;4.456;2022-11-14T11:52:33;19.90;;;14.48;;
22715;SDS011;11525;51.152;4.456;2022-11-14T11:57:41;20.90;;;14.23;;
22715;SDS011;11525;51.152;4.456;2022-11-14T12:00:27;28.80;;;15.50;;
22715;SDS011;11525;51.152;4.456;2022-11-14T12:02:53;22.35;;;14.25;;
22715;SDS011;11525;51.152;4.456;2022-11-14T12:07:50;19.48;;;14.02;;
22715;SDS011;11525;51.152;4.456;2022-11-14T12:10:36;20.15;;;15.02;;
22715;SDS011;11525;51.152;4.456;2022-11-14T12:18:26;21.33;;;15.35;;
22715;SDS011;11525;51.152;4.456;2022-11-14T12:23:45;19.42;;;15.60;;
22715;SDS011;11525;51.152;4.456;2022-11-14T12:32:06;22.95;;;16.67;;
22715;SDS011;11525;51.152;4.456;2022-11-14T12:34:36;21.17;;;16.38;;
22715;SDS011;11525;51.152;4.456;2022-11-14T12:37:07;26.92;;;16.45;;
22715;SDS011;11525;51.152;4.456;2022-11-14T12:39:55;23.83;;;16.83;;
22715;SDS011;11525;51.152;4.456;2022-11-14T12:42:26;26.15;;;16.45;;
22715;SDS011;11525;51.152;4.456;2022-11-14T12:44:52;26.02;;;16.85;;
22715;SDS011;11525;51.152;4.456;2022-11-14T12:47:19;24.85;;;17.38;;
22715;SDS011;11525;51.152;4.456;2022-11-14T12:57:56;23.13;;;18.08;;
22715;SDS011;11525;51.152;4.456;2022-11-14T13:05:54;23.80;;;16.80;;
22715;SDS011;11525;51.152;4.456;2022-11-14T13:14:17;25.55;;;16.98;;
22715;SDS011;11525;51.152;4.456;2022-11-14T13:20:30;21.75;;;16.33;;
22715;SDS011;11525;51.152;4.456;2022-11-14T13:26:52;22.23;;;15.98;;
22715;SDS011;11525;51.152;4.456;2022-11-14T13:28:49;20.90;;;16.52;;
22715;SDS011;11525;51.152;4.456;2022-11-14T13:31:23;21.75;;;16.63;;
22715;SDS011;11525;51.152;4.456;2022-11-14T13:39:58;21.85;;;17.30;;
22715;SDS011;11525;51.152;4.456;2022-11-14T13:42:48;27.40;;;18.50;;
22715;SDS011;11525;51.152;4.456;2022-11-14T13:48:34;29.50;;;21.55;;
22715;SDS011;11525;51.152;4.456;2022-11-14T13:51:14;29.70;;;20.23;;
22715;SDS011;11525;51.152;4.456;2022-11-14T13:53:42;31.80;;;22.45;;
22715;SDS011;11525;51.152;4.456;2022-11-14T14:07:22;35.72;;;27.48;;
22715;SDS011;11525;51.152;4.456;2022-11-14T14:19:11;38.15;;;30.00;;
22715;SDS011;11525;51.152;4.456;2022-11-14T14:22:10;39.08;;;30.05;;
22715;SDS011;11525;51.152;4.456;2022-11-14T14:24:49;44.30;;;31.02;;
22715;SDS011;11525;51.152;4.456;2022-11-14T14:27:27;39.33;;;29.90;;
22715;SDS011;11525;51.152;4.456;2022-11-14T14:30:18;43.72;;;31.40;;
22715;SDS011;11525;51.152;4.456;2022-11-14T14:33:02;41.17;;;31.63;;
22715;SDS011;11525;51.152;4.456;2022-11-14T14:35:47;38.92;;;29.95;;
22715;SDS011;11525;51.152;4.456;2022-11-14T14:38:31;40.33;;;30.15;;
22715;SDS011;11525;51.152;4.456;2022-11-14T14:40:57;41.92;;;32.50;;
22715;SDS011;11525;51.152;4.456;2022-11-14T14:43:30;43.30;;;33.28;;
22715;SDS011;11525;51.152;4.456;2022-11-14T14:45:57;43.35;;;32.45;;
22715;SDS011;11525;51.152;4.456;2022-11-14T14:48:24;45.15;;;32.85;;
22715;SDS011;11525;51.152;4.456;2022-11-14T14:50:59;46.13;;;33.85;;
22715;SDS011;11525;51.152;4.456;2022-11-14T14:53:31;45.55;;;33.83;;
22715;SDS011;11525;51.152;4.456;2022-11-14T14:56:03;47.05;;;34.92;;
22715;SDS011;11525;51.152;4.456;2022-11-14T14:58:53;43.40;;;33.55;;
22715;SDS011;11525;51.152;4.456;2022-11-14T15:01:20;42.92;;;33.50;;
22715;SDS011;11525;51.152;4.456;2022-11-14T15:03:56;46.72;;;34.70;;
22715;SDS011;11525;51.152;4.456;2022-11-14T15:11:41;42.38;;;31.95;;
22715;SDS011;11525;51.152;4.456;2022-11-14T15:14:12;47.08;;;33.08;;
22715;SDS011;11525;51.152;4.456;2022-11-14T15:16:45;45.85;;;32.95;;
22715;SDS011;11525;51.152;4.456;2022-11-14T15:19:14;44.15;;;33.28;;
22715;SDS011;11525;51.152;4.456;2022-11-14T15:21:55;46.00;;;34.25;;
22715;SDS011;11525;51.152;4.456;2022-11-14T15:24:28;46.72;;;35.35;;
22715;SDS011;11525;51.152;4.456;2022-11-14T15:26:54;49.03;;;35.53;;
22715;SDS011;11525;51.152;4.456;2022-11-14T15:29:23;41.15;;;29.83;;
22715;SDS011;11525;51.152;4.456;2022-11-14T15:31:54;44.35;;;32.47;;
22715;SDS011;11525;51.152;4.456;2022-11-14T15:34:26;43.28;;;32.83;;
22715;SDS011;11525;51.152;4.456;2022-11-14T15:37:17;45.58;;;30.77;;
22715;SDS011;11525;51.152;4.456;2022-11-14T15:39:45;40.42;;;29.10;;
22715;SDS011;11525;51.152;4.456;2022-11-14T15:42:13;38.97;;;29.67;;
22715;SDS011;11525;51.152;4.456;2022-11-14T15:44:49;40.95;;;29.58;;
22715;SDS011;11525;51.152;4.456;2022-11-14T15:49:57;38.67;;;28.73;;
22715;SDS011;11525;51.152;4.456;2022-11-14T15:54:58;42.42;;;31.65;;
22715;SDS011;11525;51.152;4.456;2022-11-14T15:57:24;37.88;;;29.85;;
22715;SDS011;11525;51.152;4.456;2022-11-14T15:59:50;42.28;;;31.33;;
22715;SDS011;11525;51.152;4.456;2022-11-14T16:02:29;40.65;;;30.55;;
22715;SDS011;11525;51.152;4.456;2022-11-14T16:04:57;43.17;;;30.95;;
22715;SDS011;11525;51.152;4.456;2022-11-14T16:07:24;42.00;;;31.40;;
22715;SDS011;11525;51.152;4.456;2022-11-14T16:09:52;44.10;;;30.92;;
22715;SDS011;11525;51.152;4.456;2022-11-14T16:12:18;42.85;;;30.80;;
22715;SDS011;11525;51.152;4.456;2022-11-14T16:14:44;42.03;;;30.13;;
22715;SDS011;11525;51.152;4.456;2022-11-14T16:17:14;38.88;;;28.92;;
22715;SDS011;11525;51.152;4.456;2022-11-14T16:19:40;42.80;;;31.38;;
22715;SDS011;11525;51.152;4.456;2022-11-14T16:22:15;40.28;;;29.80;;
22715;SDS011;11525;51.152;4.456;2022-11-14T16:24:42;42.03;;;30.23;;
22715;SDS011;11525;51.152;4.456;2022-11-14T16:27:07;43.78;;;31.92;;
22715;SDS011;11525;51.152;4.456;2022-11-14T16:29:33;46.67;;;32.60;;
22715;SDS011;11525;51.152;4.456;2022-11-14T16:31:59;40.75;;;30.13;;
22715;SDS011;11525;51.152;4.456;2022-11-14T16:34:25;42.33;;;31.48;;
22715;SDS011;11525;51.152;4.456;2022-11-14T16:36:59;44.25;;;33.45;;
22715;SDS011;11525;51.152;4.456;2022-11-14T16:39:26;44.83;;;31.27;;
22715;SDS011;11525;51.152;4.456;2022-11-14T16:41:52;43.80;;;32.10;;
22715;SDS011;11525;51.152;4.456;2022-11-14T16:44:23;41.20;;;30.40;;
22715;SDS011;11525;51.152;4.456;2022-11-14T16:46:49;46.28;;;31.00;;
22715;SDS011;11525;51.152;4.456;2022-11-14T16:49:15;43.47;;;29.83;;
22715;SDS011;11525;51.152;4.456;2022-11-14T16:51:42;44.78;;;33.03;;
22715;SDS011;11525;51.152;4.456;2022-11-14T16:54:11;40.70;;;30.25;;
22715;SDS011;11525;51.152;4.456;2022-11-14T16:56:38;44.72;;;31.42;;
22715;SDS011;11525;51.152;4.456;2022-11-14T16:59:04;43.53;;;31.80;;
22715;SDS011;11525;51.152;4.456;2022-11-14T17:01:30;45.75;;;32.20;;
22715;SDS011;11525;51.152;4.456;2022-11-14T17:03:56;40.53;;;31.38;;
22715;SDS011;11525;51.152;4.456;2022-11-14T17:06:26;43.78;;;31.65;;
22715;SDS011;11525;51.152;4.456;2022-11-14T17:08:55;43.05;;;30.35;;
22715;SDS011;11525;51.152;4.456;2022-11-14T17:11:22;41.47;;;32.05;;